Latest Weather Observations for Terrey Hills

IDN60901

Issued at 8:21 pm EST Wednesday 5 August 2015 (issued every 10 minutes, with the page automatically refreshed every 10 minutes)

About weather observations | Map of Sydney area stations | Latest observations for Sydney area | Other Formats
Station Details ID: 066059 Name: TERREY HILLS AWS Lat: -33.69 Lon: 151.23 Height: 199.0 m
Data from the previous 72 hours. | See also: Recent months at Terrey Hills
Date/Time
EST
Tmp

°C
App
Tmp
°C
Dew
Point
°C
Rel
Hum
%
Delta-T

°C
Wind Press
QNH
hPa
Press
MSL
hPa
Rain
since
9 am
mm
Dir
 
Spd
km/h
Gust
km/h
Spd
kts
Gust
kts
05/08:00pm 9.6 5.5 2.5 61 3.0 WNW 13 30 7 16 - - 0.0
05/07:30pm 9.6 5.5 2.2 60 3.2 WNW 13 26 7 14 - - 0.0
05/07:00pm 9.9 5.8 2.3 59 3.3 WNW 13 30 7 16 - - 0.0
05/06:30pm 10.0 6.3 2.1 58 3.4 WNW 11 20 6 11 - - 0.0
05/06:00pm 10.2 6.9 2.3 58 3.4 WNW 9 20 5 11 - - 0.0
05/05:30pm 10.6 7.3 2.2 56 3.6 WNW 9 19 5 10 - - 0.0
05/05:00pm 11.4 6.9 1.9 52 4.1 WNW 15 28 8 15 - - 0.0
05/04:30pm 12.3 8.1 1.9 49 4.5 W 13 32 7 17 - - 0.0
05/04:00pm 12.7 6.0 1.4 46 4.9 W 26 44 14 24 - - 0.0
05/03:30pm 11.3 6.8 2.1 53 4.0 WNW 15 30 8 16 - - 0.0
05/03:00pm 11.1 6.5 1.6 52 4.1 WNW 15 35 8 19 - - 0.0
05/02:30pm 11.7 6.7 1.4 49 4.4 WNW 17 33 9 18 - - 0.0
05/02:00pm 11.5 6.9 1.5 50 4.3 WNW 15 39 8 21 - - 0.0
05/01:30pm 11.4 7.2 1.9 52 4.1 WNW 13 28 7 15 - - 0.0
05/01:00pm 10.7 7.3 1.8 54 3.8 WNW 9 20 5 11 - - 0.0
05/12:30pm 10.4 6.5 1.0 52 3.9 WNW 11 22 6 12 - - 0.0
05/12:00pm 10.4 6.1 1.0 52 3.9 WNW 13 26 7 14 - - 0.0
05/11:30am 10.2 6.3 1.1 53 3.8 WNW 11 20 6 11 - - 0.0
05/11:00am 10.2 5.8 0.5 51 4.0 WNW 13 24 7 13 - - 0.0
05/10:30am 9.8 6.1 -0.1 50 4.0 WNW 9 22 5 12 - - 0.0
05/10:00am 9.7 5.3 0.1 51 3.9 WNW 13 20 7 11 - - 0.0
05/09:30am 9.3 5.6 0.0 52 3.8 WNW 9 19 5 10 - - 0.0
05/09:00am 8.1 4.7 -0.9 53 3.5 WNW 7 17 4 9 - - 0.0
05/08:30am 6.7 2.8 -1.2 57 3.0 NW 9 17 5 9 - - 0.0
05/08:00am 4.9 1.5 -0.9 66 2.2 WNW 7 13 4 7 - - 0.0
05/07:30am 3.3 -0.6 -1.6 70 1.8 WNW 9 17 5 9 - - 0.0
05/07:00am 3.4 -0.5 -1.7 69 1.8 NW 9 17 5 9 - - 0.0
05/06:30am 2.8 -0.7 -1.5 73 1.6 NW 7 15 4 8 - - 0.0
05/06:00am 1.7 -1.8 -1.4 80 1.1 WNW 7 13 4 7 - - 0.0
05/05:30am 2.3 -1.0 -1.5 76 1.4 WNW 6 9 3 5 - - 0.0
05/05:00am 1.8 -1.5 -1.4 79 1.1 WNW 6 9 3 5 - - 0.0
05/04:30am 2.0 -1.3 -1.2 79 1.2 NW 6 9 3 5 - - 0.0
05/04:00am 1.9 -1.6 -1.3 79 1.1 WNW 7 9 4 5 - - 0.0
05/03:30am 2.2 -1.1 -1.4 77 1.3 WNW 6 7 3 4 - - 0.0
05/03:00am 2.4 -0.9 -1.4 76 1.4 WNW 6 9 3 5 - - 0.0
05/02:30am 2.6 -1.3 -1.2 76 1.4 WNW 9 15 5 8 - - 0.0
05/02:00am 2.7 -1.1 -1.1 76 1.4 W 9 13 5 7 - - 0.0
05/01:30am 2.3 -1.5 -1.1 78 1.2 W 9 13 5 7 - - 0.0
05/01:00am 2.9 -0.4 -1.1 75 1.5 WNW 6 9 3 5 - - 0.0
05/12:30am 3.1 -0.2 -1.3 73 1.6 WNW 6 11 3 6 - - 0.0
05/12:00am 3.7 0.2 -1.4 69 1.9 WNW 7 15 4 8 - - 0.0
 
Date/Time
EST
Tmp

°C
App
Tmp
°C
Dew
Point
°C
Rel
Hum
%
Delta-T

°C
Wind Press
QNH
hPa
Press
MSL
hPa
Rain
since
9 am
mm
Dir
 
Spd
km/h
Gust
km/h
Spd
kts
Gust
kts
04/11:30pm 4.3 0.0 -1.3 67 2.1 WNW 11 19 6 10 - - 0.0
04/11:00pm 4.5 0.3 -1.1 67 2.1 WNW 11 19 6 10 - - 0.0
04/10:30pm 4.6 0.5 -0.4 70 1.9 W 11 17 6 9 - - 0.0
04/10:00pm 5.0 0.9 -0.2 69 2.0 WNW 11 17 6 9 - - 0.0
04/09:30pm 5.3 1.3 0.3 70 1.9 W 11 15 6 8 - - 0.0
04/09:00pm 6.1 2.1 0.4 67 2.2 W 11 19 6 10 - - 0.0
04/08:30pm 7.0 3.1 1.1 66 2.4 WNW 11 22 6 12 - - 0.0
04/08:00pm 7.1 4.3 3.0 75 1.7 NW 7 13 4 7 - - 0.0
04/07:30pm 7.8 4.9 4.6 80 1.4 NNW 9 13 5 7 - - 0.0
04/07:00pm 8.3 5.3 4.1 75 1.8 N 9 13 5 7 - - 0.0
04/06:30pm 8.6 5.1 3.6 71 2.2 N 11 15 6 8 - - 0.0
04/06:00pm 8.7 6.0 3.5 70 2.3 N 7 11 4 6 - - 0.0
04/05:30pm 8.9 6.2 3.7 70 2.3 N 7 9 4 5 - - 0.0
04/05:00pm 9.6 7.4 3.1 64 2.8 N 4 7 2 4 - - 0.0
04/04:30pm 10.9 9.1 3.7 61 3.2 N 2 7 1 4 - - 0.0
04/04:00pm 10.8 8.6 3.1 59 3.4 NNW 4 9 2 5 - - 0.0
04/03:30pm 11.5 9.2 2.8 55 3.8 NNW 4 9 2 5 - - 0.0
04/03:00pm 12.3 10.4 3.0 53 4.1 NNW 2 7 1 4 - - 0.0
04/02:30pm 11.0 9.2 3.3 59 3.4 W 2 6 1 3 - - 0.0
04/02:00pm 11.9 9.8 3.9 58 3.6 W 4 7 2 4 - - 0.0
04/01:30pm 10.7 8.4 3.0 59 3.4 S 4 6 2 3 - - 0.0
04/01:00pm 10.0 7.3 2.8 61 3.1 WSW 6 7 3 4 - - 0.0
04/12:30pm 8.8 6.0 3.2 68 2.4 W 7 9 4 5 - - 0.0
04/12:00pm 8.8 5.5 2.4 64 2.7 W 9 13 5 7 - - 0.0
04/11:30am 9.2 5.9 2.3 62 2.9 W 9 15 5 8 - - 0.0
04/11:00am 8.9 5.6 2.5 64 2.7 W 9 15 5 8 - - 0.0
04/10:30am 8.2 4.1 2.4 67 2.5 WSW 13 22 7 12 - - 0.0
04/10:00am 7.5 4.9 4.3 80 1.4 W 7 15 4 8 - - 0.0
04/09:30am 6.9 3.8 3.5 79 1.5 W 9 15 5 8 - - 0.0
04/09:00am 6.2 3.5 3.7 84 1.1 W 7 13 4 7 - - 0.0
04/08:30am 6.2 2.9 2.3 76 1.6 W 9 15 5 8 - - 0.0
04/08:00am 6.4 2.6 1.7 72 1.9 W 11 17 6 9 - - 0.0
04/07:30am 5.9 2.6 2.2 77 1.5 W 9 15 5 8 - - 0.0
04/07:00am 6.0 2.9 1.2 71 1.9 W 7 11 4 6 - - 0.0
04/06:30am 6.0 2.5 1.0 70 2.0 W 9 15 5 8 - - 0.0
04/06:00am 6.3 2.3 0.6 67 2.3 WSW 11 17 6 9 - - 0.0
04/05:30am 6.3 1.9 0.4 66 2.3 WSW 13 19 7 10 - - 0.0
04/05:00am 6.3 1.9 0.2 65 2.4 SW 13 24 7 13 - - 0.0
04/04:30am 6.7 2.7 0.2 63 2.6 WSW 11 19 6 10 - - 0.0
04/04:00am 6.5 2.0 0.0 63 2.5 WSW 13 19 7 10 - - 0.0
04/03:30am 6.6 2.1 -0.4 61 2.7 WSW 13 17 7 9 - - 0.0
04/03:00am 7.0 2.9 -0.4 59 2.9 WSW 11 20 6 11 - - 0.0
04/02:30am 6.8 2.7 -0.4 60 2.8 WSW 11 19 6 10 - - 0.0
04/02:00am 6.6 3.0 0.3 64 2.5 W 9 17 5 9 - - 0.0
04/01:30am 6.3 2.8 1.4 71 2.0 W 9 13 5 7 - - 0.0
04/01:00am 6.0 2.2 1.9 75 1.7 W 11 15 6 8 - - 0.0
04/12:30am 6.8 3.8 1.7 70 2.1 W 7 9 4 5 - - 0.0
04/12:00am 8.2 4.7 1.4 62 2.8 WSW 9 13 5 7 - - 0.0
 
Date/Time
EST
Tmp

°C
App
Tmp
°C
Dew
Point
°C
Rel
Hum
%
Delta-T

°C
Wind Press
QNH
hPa
Press
MSL
hPa
Rain
since
9 am
mm
Dir
 
Spd
km/h
Gust
km/h
Spd
kts
Gust
kts
03/11:30pm 8.5 5.1 1.6 62 2.9 SW 9 11 5 6 - - 0.0
03/11:00pm 8.7 5.3 1.6 61 3.0 SW 9 13 5 7 - - 0.0
03/10:30pm 8.8 5.3 1.2 59 3.1 SW 9 13 5 7 - - 0.0
03/10:00pm 9.4 5.5 1.1 56 3.4 WSW 11 19 6 10 - - 0.0
03/09:30pm 9.8 5.5 0.9 54 3.7 WSW 13 26 7 14 - - 0.0
03/09:00pm 10.1 6.6 1.2 54 3.7 W 9 24 5 13 - - 0.0
03/08:30pm 10.9 5.4 0.9 50 4.2 WSW 19 35 10 19 - - 0.0
03/08:00pm 10.7 6.8 1.3 52 4.0 WSW 11 17 6 9 - - 0.0
03/07:30pm 10.8 7.0 1.6 53 3.9 W 11 17 6 9 - - 0.0
03/07:00pm 10.8 7.9 1.6 53 3.9 WNW 6 15 3 8 - - 0.0
03/06:30pm 11.8 7.9 1.2 48 4.5 W 11 20 6 11 - - 0.0
03/06:00pm 12.2 7.2 1.2 47 4.7 WSW 17 24 9 13 - - 0.0
03/05:30pm 12.5 7.8 1.2 46 4.8 WSW 15 22 8 12 - - 0.0
03/05:00pm 13.7 8.0 0.7 41 5.6 WSW 20 37 11 20 - - 0.0
03/04:30pm 15.0 10.8 1.5 40 6.0 W 13 26 7 14 - - 0.0
03/04:00pm 15.7 11.0 1.1 37 6.4 W 15 26 8 14 - - 0.0
03/03:30pm 16.2 11.5 1.1 36 6.7 WNW 15 33 8 18 - - 0.0
03/03:00pm 16.4 10.9 0.5 34 6.9 W 19 30 10 16 - - 0.0
03/02:30pm 16.5 11.4 0.6 34 7.0 W 17 39 9 21 - - 0.0
03/02:00pm 16.8 13.0 2.0 37 6.7 WNW 11 26 6 14 - - 0.0
03/01:30pm 16.9 12.3 1.8 36 6.8 WNW 15 33 8 18 - - 0.0
03/01:00pm 16.8 12.7 2.0 37 6.7 WNW 13 24 7 13 - - 0.0
03/12:30pm 15.9 11.2 1.2 37 6.5 WNW 15 22 8 12 - - 0.0
03/12:00pm 15.4 11.1 1.2 38 6.2 NW 13 32 7 17 - - 0.0
03/11:30am 14.7 10.5 1.6 41 5.8 WNW 13 30 7 16 - - 0.0
03/11:00am 13.9 10.1 1.5 43 5.4 NW 11 20 6 11 - - 0.0
03/10:30am 13.9 10.5 1.9 44 5.3 NW 9 17 5 9 - - 0.0
03/10:00am 12.6 9.1 1.0 45 4.9 NW 9 17 5 9 - - 0.0
03/09:30am 12.1 9.0 1.4 48 4.6 NW 7 19 4 10 - - 0.0
03/09:00am 10.9 7.3 0.6 49 4.3 NW 9 24 5 13 - - 0.0
03/08:30am 10.1 6.9 0.7 52 3.9 NW 7 15 4 8 - - 0.0
03/08:00am 9.0 5.8 0.5 55 3.5 NW 7 17 4 9 - - 0.0
03/07:30am 6.8 3.7 0.3 63 2.6 WNW 6 9 3 5 - - 0.0
03/07:00am 5.6 2.4 -0.2 66 2.2 WNW 6 9 3 5 - - 0.0
03/06:30am 5.6 2.5 0.0 67 2.2 W 6 7 3 4 - - 0.0
03/06:00am 6.6 3.2 -0.6 60 2.8 W 7 11 4 6 - - 0.0
03/05:30am 6.4 3.1 -0.1 63 2.5 W 7 13 4 7 - - 0.0
03/05:00am 6.5 2.8 0.0 63 2.5 W 9 11 5 6 - - 0.0
03/04:30am 7.4 3.7 -0.1 59 3.0 W 9 15 5 8 - - 0.0
03/04:00am 8.1 4.3 -0.4 55 3.4 WSW 9 15 5 8 - - 0.0
03/03:30am 8.7 4.7 0.2 55 3.4 WSW 11 17 6 9 - - 0.0
03/03:00am 9.4 5.9 1.3 57 3.4 WSW 9 15 5 8 - - 0.0
03/02:30am 10.6 6.5 2.2 56 3.6 WSW 13 20 7 11 - - 0.0
03/02:00am 11.2 7.8 4.2 62 3.2 WSW 11 19 6 10 - - 0.0
03/01:30am 11.4 8.8 6.1 70 2.5 W 9 13 5 7 - - 0.0
03/01:00am 12.4 9.2 6.7 68 2.8 SW 13 22 7 12 - - 0.0
03/12:30am 12.8 11.2 7.9 72 2.4 WNW 6 9 3 5 - - 0.0
03/12:00am 13.7 12.0 7.5 66 3.1 WNW 6 11 3 6 - - 0.0
 
Date/Time
EST
Tmp

°C
App
Tmp
°C
Dew
Point
°C
Rel
Hum
%
Delta-T

°C
Wind Press
QNH
hPa
Press
MSL
hPa
Rain
since
9 am
mm
Dir
 
Spd
km/h
Gust
km/h
Spd
kts
Gust
kts
02/11:30pm 14.6 12.7 7.6 63 3.5 W 7 15 4 8 - - 0.0
02/11:00pm 15.0 12.8 7.8 62 3.6 WNW 9 19 5 10 - - 0.0
02/10:30pm 15.2 13.0 7.7 61 3.8 W 9 20 5 11 - - 0.0
02/10:00pm 15.2 13.2 7.3 59 3.9 WNW 7 15 4 8 - - 0.0
02/09:30pm 15.9 13.5 6.9 55 4.5 WNW 9 19 5 10 - - 0.0
02/09:00pm 16.1 13.5 6.3 52 4.8 W 9 15 5 8 - - 0.0
02/08:30pm 16.9 14.9 6.1 49 5.3 WNW 6 13 3 7 - - 0.0

Latest Capital City Observations: Canberra | Sydney | Melbourne | Brisbane | Adelaide | Perth | Hobart | Darwin

Other Formats:

Comma delimited format used in spreadsheet applications
http://www.bom.gov.au/fwo/IDN60901/IDN60901.94759.axf

JavaScript Object Notation format (JSON) in row-major order
http://www.bom.gov.au/fwo/IDN60901/IDN60901.94759.json